sensor_id;sensor_type;location;lat;lon;timestamp;P1;durP1;ratioP1;P2;durP2;ratioP2
19406;SDS011;9839;53.364;-1.204;2023-02-15T00:01:25;83.70;;;33.00;;
19406;SDS011;9839;53.364;-1.204;2023-02-15T00:03:51;70.73;;;30.93;;
19406;SDS011;9839;53.364;-1.204;2023-02-15T00:06:17;65.80;;;29.83;;
19406;SDS011;9839;53.364;-1.204;2023-02-15T00:08:43;67.17;;;30.33;;
19406;SDS011;9839;53.364;-1.204;2023-02-15T00:11:10;67.00;;;30.33;;
19406;SDS011;9839;53.364;-1.204;2023-02-15T00:13:38;68.50;;;29.70;;
19406;SDS011;9839;53.364;-1.204;2023-02-15T00:16:07;72.37;;;30.97;;
19406;SDS011;9839;53.364;-1.204;2023-02-15T00:18:35;66.40;;;29.30;;
19406;SDS011;9839;53.364;-1.204;2023-02-15T00:21:08;68.77;;;29.30;;
19406;SDS011;9839;53.364;-1.204;2023-02-15T00:23:35;73.20;;;29.23;;
19406;SDS011;9839;53.364;-1.204;2023-02-15T00:26:11;64.83;;;28.50;;
19406;SDS011;9839;53.364;-1.204;2023-02-15T00:28:37;74.80;;;29.90;;
19406;SDS011;9839;53.364;-1.204;2023-02-15T00:31:07;66.40;;;29.70;;
19406;SDS011;9839;53.364;-1.204;2023-02-15T00:33:37;75.53;;;29.40;;
19406;SDS011;9839;53.364;-1.204;2023-02-15T00:36:04;70.03;;;29.53;;
19406;SDS011;9839;53.364;-1.204;2023-02-15T00:38:31;74.30;;;29.63;;
19406;SDS011;9839;53.364;-1.204;2023-02-15T00:40:58;76.27;;;32.27;;
19406;SDS011;9839;53.364;-1.204;2023-02-15T00:43:25;68.23;;;29.77;;
19406;SDS011;9839;53.364;-1.204;2023-02-15T00:45:52;79.10;;;30.80;;
19406;SDS011;9839;53.364;-1.204;2023-02-15T00:48:18;71.00;;;29.53;;
19406;SDS011;9839;53.364;-1.204;2023-02-15T00:50:45;63.47;;;28.63;;
19406;SDS011;9839;53.364;-1.204;2023-02-15T00:53:11;66.23;;;29.40;;
19406;SDS011;9839;53.364;-1.204;2023-02-15T00:55:37;73.77;;;30.37;;
19406;SDS011;9839;53.364;-1.204;2023-02-15T00:58:05;66.17;;;29.37;;
19406;SDS011;9839;53.364;-1.204;2023-02-15T01:00:31;71.07;;;29.07;;
19406;SDS011;9839;53.364;-1.204;2023-02-15T01:02:57;64.30;;;27.40;;
19406;SDS011;9839;53.364;-1.204;2023-02-15T01:05:22;69.63;;;29.80;;
19406;SDS011;9839;53.364;-1.204;2023-02-15T01:07:48;76.67;;;29.80;;
19406;SDS011;9839;53.364;-1.204;2023-02-15T01:10:14;72.20;;;29.67;;
19406;SDS011;9839;53.364;-1.204;2023-02-15T01:12:40;61.07;;;28.13;;
19406;SDS011;9839;53.364;-1.204;2023-02-15T01:15:05;58.00;;;28.33;;
19406;SDS011;9839;53.364;-1.204;2023-02-15T01:17:31;57.27;;;25.97;;
19406;SDS011;9839;53.364;-1.204;2023-02-15T01:19:57;62.27;;;26.93;;
19406;SDS011;9839;53.364;-1.204;2023-02-15T01:22:24;68.17;;;29.57;;
19406;SDS011;9839;53.364;-1.204;2023-02-15T01:24:50;60.93;;;27.00;;
19406;SDS011;9839;53.364;-1.204;2023-02-15T01:27:16;62.03;;;27.70;;
19406;SDS011;9839;53.364;-1.204;2023-02-15T01:29:42;61.50;;;28.07;;
19406;SDS011;9839;53.364;-1.204;2023-02-15T01:32:08;66.37;;;27.80;;
19406;SDS011;9839;53.364;-1.204;2023-02-15T01:34:34;70.23;;;28.63;;
19406;SDS011;9839;53.364;-1.204;2023-02-15T01:37:00;64.80;;;27.73;;
19406;SDS011;9839;53.364;-1.204;2023-02-15T01:39:25;66.00;;;26.17;;
19406;SDS011;9839;53.364;-1.204;2023-02-15T01:41:51;65.67;;;28.00;;
19406;SDS011;9839;53.364;-1.204;2023-02-15T01:47:29;67.83;;;28.53;;
19406;SDS011;9839;53.364;-1.204;2023-02-15T01:50:04;61.27;;;26.43;;
19406;SDS011;9839;53.364;-1.204;2023-02-15T01:52:32;65.33;;;27.73;;
19406;SDS011;9839;53.364;-1.204;2023-02-15T01:55:02;67.93;;;28.73;;
19406;SDS011;9839;53.364;-1.204;2023-02-15T01:57:29;70.20;;;29.77;;
19406;SDS011;9839;53.364;-1.204;2023-02-15T01:59:56;70.40;;;29.83;;
19406;SDS011;9839;53.364;-1.204;2023-02-15T02:02:25;74.07;;;29.00;;
19406;SDS011;9839;53.364;-1.204;2023-02-15T02:05:02;72.47;;;31.73;;
19406;SDS011;9839;53.364;-1.204;2023-02-15T02:07:35;73.50;;;29.97;;
19406;SDS011;9839;53.364;-1.204;2023-02-15T02:10:05;73.27;;;29.17;;
19406;SDS011;9839;53.364;-1.204;2023-02-15T02:12:31;71.00;;;31.00;;
19406;SDS011;9839;53.364;-1.204;2023-02-15T02:14:58;74.00;;;31.30;;
19406;SDS011;9839;53.364;-1.204;2023-02-15T02:17:47;69.93;;;29.47;;
19406;SDS011;9839;53.364;-1.204;2023-02-15T02:37:23;70.77;;;28.03;;
19406;SDS011;9839;53.364;-1.204;2023-02-15T02:42:41;61.30;;;27.97;;
19406;SDS011;9839;53.364;-1.204;2023-02-15T02:45:15;58.77;;;26.40;;
19406;SDS011;9839;53.364;-1.204;2023-02-15T02:47:56;62.20;;;26.93;;
19406;SDS011;9839;53.364;-1.204;2023-02-15T02:50:28;67.37;;;27.07;;
19406;SDS011;9839;53.364;-1.204;2023-02-15T02:52:55;66.97;;;27.60;;
19406;SDS011;9839;53.364;-1.204;2023-02-15T02:55:27;65.07;;;28.03;;
19406;SDS011;9839;53.364;-1.204;2023-02-15T03:00:35;75.03;;;30.00;;
19406;SDS011;9839;53.364;-1.204;2023-02-15T03:03:12;71.13;;;31.00;;
19406;SDS011;9839;53.364;-1.204;2023-02-15T03:05:44;79.53;;;32.37;;
19406;SDS011;9839;53.364;-1.204;2023-02-15T03:08:13;68.53;;;28.67;;
19406;SDS011;9839;53.364;-1.204;2023-02-15T03:10:46;67.07;;;27.70;;
19406;SDS011;9839;53.364;-1.204;2023-02-15T03:13:17;63.63;;;27.47;;
19406;SDS011;9839;53.364;-1.204;2023-02-15T03:15:43;66.43;;;27.17;;
19406;SDS011;9839;53.364;-1.204;2023-02-15T03:18:30;70.90;;;27.43;;
19406;SDS011;9839;53.364;-1.204;2023-02-15T03:21:04;69.40;;;28.03;;
19406;SDS011;9839;53.364;-1.204;2023-02-15T03:23:32;59.40;;;26.13;;
19406;SDS011;9839;53.364;-1.204;2023-02-15T03:26:00;66.87;;;30.47;;
19406;SDS011;9839;53.364;-1.204;2023-02-15T03:28:35;69.83;;;28.30;;
19406;SDS011;9839;53.364;-1.204;2023-02-15T03:31:06;77.70;;;31.50;;
19406;SDS011;9839;53.364;-1.204;2023-02-15T03:33:35;81.90;;;33.67;;
19406;SDS011;9839;53.364;-1.204;2023-02-15T03:36:11;72.43;;;30.40;;
19406;SDS011;9839;53.364;-1.204;2023-02-15T03:38:42;74.50;;;32.27;;
19406;SDS011;9839;53.364;-1.204;2023-02-15T03:41:14;79.57;;;31.93;;
19406;SDS011;9839;53.364;-1.204;2023-02-15T03:46:37;82.03;;;33.17;;
19406;SDS011;9839;53.364;-1.204;2023-02-15T03:49:09;77.67;;;32.90;;
19406;SDS011;9839;53.364;-1.204;2023-02-15T03:51:48;71.53;;;29.13;;
19406;SDS011;9839;53.364;-1.204;2023-02-15T03:57:04;73.87;;;30.50;;
19406;SDS011;9839;53.364;-1.204;2023-02-15T03:59:50;65.77;;;30.27;;
19406;SDS011;9839;53.364;-1.204;2023-02-15T04:05:27;72.87;;;31.23;;
19406;SDS011;9839;53.364;-1.204;2023-02-15T04:07:53;79.33;;;33.17;;
19406;SDS011;9839;53.364;-1.204;2023-02-15T04:10:18;74.57;;;29.17;;
19406;SDS011;9839;53.364;-1.204;2023-02-15T04:13:02;71.77;;;30.03;;
19406;SDS011;9839;53.364;-1.204;2023-02-15T04:15:28;74.07;;;29.40;;
19406;SDS011;9839;53.364;-1.204;2023-02-15T04:18:13;71.57;;;30.40;;
19406;SDS011;9839;53.364;-1.204;2023-02-15T04:20:38;72.90;;;30.03;;
19406;SDS011;9839;53.364;-1.204;2023-02-15T04:23:26;77.90;;;31.10;;
19406;SDS011;9839;53.364;-1.204;2023-02-15T04:26:10;68.37;;;30.63;;
19406;SDS011;9839;53.364;-1.204;2023-02-15T04:28:36;69.03;;;31.47;;
19406;SDS011;9839;53.364;-1.204;2023-02-15T04:31:01;67.93;;;30.07;;
19406;SDS011;9839;53.364;-1.204;2023-02-15T04:33:27;65.43;;;29.50;;
19406;SDS011;9839;53.364;-1.204;2023-02-15T04:35:53;71.13;;;29.97;;
19406;SDS011;9839;53.364;-1.204;2023-02-15T04:38:18;64.47;;;28.30;;
19406;SDS011;9839;53.364;-1.204;2023-02-15T04:40:44;67.07;;;30.23;;
19406;SDS011;9839;53.364;-1.204;2023-02-15T04:43:14;74.33;;;29.87;;
19406;SDS011;9839;53.364;-1.204;2023-02-15T04:45:39;68.80;;;28.83;;
19406;SDS011;9839;53.364;-1.204;2023-02-15T04:48:05;63.60;;;27.97;;
19406;SDS011;9839;53.364;-1.204;2023-02-15T04:50:31;66.37;;;27.43;;
19406;SDS011;9839;53.364;-1.204;2023-02-15T04:52:56;59.70;;;27.70;;
19406;SDS011;9839;53.364;-1.204;2023-02-15T04:55:22;59.80;;;27.13;;
19406;SDS011;9839;53.364;-1.204;2023-02-15T04:57:48;58.73;;;27.77;;
19406;SDS011;9839;53.364;-1.204;2023-02-15T05:00:13;60.77;;;27.50;;
19406;SDS011;9839;53.364;-1.204;2023-02-15T05:02:39;66.37;;;27.77;;
19406;SDS011;9839;53.364;-1.204;2023-02-15T05:05:05;75.27;;;29.10;;
19406;SDS011;9839;53.364;-1.204;2023-02-15T05:07:32;59.77;;;25.10;;
19406;SDS011;9839;53.364;-1.204;2023-02-15T05:09:57;58.77;;;25.77;;
19406;SDS011;9839;53.364;-1.204;2023-02-15T05:12:23;61.60;;;26.07;;
19406;SDS011;9839;53.364;-1.204;2023-02-15T05:14:48;58.33;;;25.83;;
19406;SDS011;9839;53.364;-1.204;2023-02-15T05:17:14;58.67;;;25.33;;
19406;SDS011;9839;53.364;-1.204;2023-02-15T05:19:40;65.63;;;26.90;;
19406;SDS011;9839;53.364;-1.204;2023-02-15T05:22:06;58.07;;;24.17;;
19406;SDS011;9839;53.364;-1.204;2023-02-15T05:24:31;60.83;;;24.70;;
19406;SDS011;9839;53.364;-1.204;2023-02-15T05:27:15;58.40;;;25.87;;
19406;SDS011;9839;53.364;-1.204;2023-02-15T05:29:59;63.80;;;27.63;;
19406;SDS011;9839;53.364;-1.204;2023-02-15T05:32:25;61.80;;;25.87;;
19406;SDS011;9839;53.364;-1.204;2023-02-15T05:34:51;63.53;;;27.40;;
19406;SDS011;9839;53.364;-1.204;2023-02-15T05:37:16;60.00;;;26.47;;
19406;SDS011;9839;53.364;-1.204;2023-02-15T05:39:42;57.50;;;26.73;;
19406;SDS011;9839;53.364;-1.204;2023-02-15T05:42:08;59.67;;;24.80;;
19406;SDS011;9839;53.364;-1.204;2023-02-15T05:44:33;62.83;;;24.67;;
19406;SDS011;9839;53.364;-1.204;2023-02-15T05:46:59;56.17;;;25.77;;
19406;SDS011;9839;53.364;-1.204;2023-02-15T05:49:25;55.37;;;24.93;;
19406;SDS011;9839;53.364;-1.204;2023-02-15T05:51:51;60.20;;;25.33;;
19406;SDS011;9839;53.364;-1.204;2023-02-15T05:54:16;61.20;;;26.00;;
19406;SDS011;9839;53.364;-1.204;2023-02-15T05:56:42;50.43;;;25.20;;
19406;SDS011;9839;53.364;-1.204;2023-02-15T05:59:08;68.57;;;26.30;;
19406;SDS011;9839;53.364;-1.204;2023-02-15T06:01:33;55.93;;;24.53;;
19406;SDS011;9839;53.364;-1.204;2023-02-15T06:03:59;56.30;;;25.20;;
19406;SDS011;9839;53.364;-1.204;2023-02-15T06:06:25;65.00;;;27.07;;
19406;SDS011;9839;53.364;-1.204;2023-02-15T06:08:51;57.67;;;27.23;;
19406;SDS011;9839;53.364;-1.204;2023-02-15T06:11:16;62.93;;;27.53;;
19406;SDS011;9839;53.364;-1.204;2023-02-15T06:13:42;65.63;;;26.03;;
19406;SDS011;9839;53.364;-1.204;2023-02-15T06:16:08;60.57;;;26.87;;
19406;SDS011;9839;53.364;-1.204;2023-02-15T06:18:34;64.07;;;27.53;;
19406;SDS011;9839;53.364;-1.204;2023-02-15T06:20:59;59.47;;;26.50;;
19406;SDS011;9839;53.364;-1.204;2023-02-15T06:23:25;57.30;;;25.77;;
19406;SDS011;9839;53.364;-1.204;2023-02-15T06:25:51;57.60;;;25.27;;
19406;SDS011;9839;53.364;-1.204;2023-02-15T06:28:16;55.87;;;26.53;;
19406;SDS011;9839;53.364;-1.204;2023-02-15T06:30:42;58.97;;;25.63;;
19406;SDS011;9839;53.364;-1.204;2023-02-15T06:33:08;54.07;;;26.00;;
19406;SDS011;9839;53.364;-1.204;2023-02-15T06:35:34;54.00;;;24.80;;
19406;SDS011;9839;53.364;-1.204;2023-02-15T06:37:59;60.80;;;27.33;;
19406;SDS011;9839;53.364;-1.204;2023-02-15T06:40:25;68.50;;;27.90;;
19406;SDS011;9839;53.364;-1.204;2023-02-15T06:42:51;62.60;;;27.37;;
19406;SDS011;9839;53.364;-1.204;2023-02-15T06:45:16;65.23;;;27.93;;
19406;SDS011;9839;53.364;-1.204;2023-02-15T06:47:42;60.23;;;26.47;;
19406;SDS011;9839;53.364;-1.204;2023-02-15T06:50:08;66.07;;;27.63;;
19406;SDS011;9839;53.364;-1.204;2023-02-15T06:52:35;62.53;;;26.90;;
19406;SDS011;9839;53.364;-1.204;2023-02-15T06:55:01;64.53;;;28.00;;
19406;SDS011;9839;53.364;-1.204;2023-02-15T06:57:26;60.27;;;27.53;;
19406;SDS011;9839;53.364;-1.204;2023-02-15T06:59:52;66.53;;;27.90;;
19406;SDS011;9839;53.364;-1.204;2023-02-15T07:02:18;63.37;;;27.17;;
19406;SDS011;9839;53.364;-1.204;2023-02-15T07:04:43;63.07;;;27.57;;
19406;SDS011;9839;53.364;-1.204;2023-02-15T07:07:09;63.50;;;27.40;;
19406;SDS011;9839;53.364;-1.204;2023-02-15T07:09:36;60.17;;;27.50;;
19406;SDS011;9839;53.364;-1.204;2023-02-15T07:12:02;70.43;;;27.90;;
19406;SDS011;9839;53.364;-1.204;2023-02-15T07:14:47;70.33;;;28.67;;
19406;SDS011;9839;53.364;-1.204;2023-02-15T07:17:12;71.20;;;28.50;;
19406;SDS011;9839;53.364;-1.204;2023-02-15T07:19:38;70.37;;;28.13;;
19406;SDS011;9839;53.364;-1.204;2023-02-15T07:22:04;67.80;;;28.37;;
19406;SDS011;9839;53.364;-1.204;2023-02-15T07:24:30;65.47;;;27.23;;
19406;SDS011;9839;53.364;-1.204;2023-02-15T07:26:55;69.00;;;28.70;;
19406;SDS011;9839;53.364;-1.204;2023-02-15T07:29:22;65.37;;;27.10;;
19406;SDS011;9839;53.364;-1.204;2023-02-15T07:31:48;71.13;;;29.97;;
19406;SDS011;9839;53.364;-1.204;2023-02-15T07:34:14;64.43;;;28.87;;
19406;SDS011;9839;53.364;-1.204;2023-02-15T07:36:40;61.40;;;28.87;;
19406;SDS011;9839;53.364;-1.204;2023-02-15T07:39:06;68.63;;;28.20;;
19406;SDS011;9839;53.364;-1.204;2023-02-15T07:41:32;68.73;;;30.97;;
19406;SDS011;9839;53.364;-1.204;2023-02-15T07:43:58;66.47;;;29.07;;
19406;SDS011;9839;53.364;-1.204;2023-02-15T07:46:24;64.17;;;29.10;;
19406;SDS011;9839;53.364;-1.204;2023-02-15T07:48:49;74.27;;;28.73;;
19406;SDS011;9839;53.364;-1.204;2023-02-15T07:51:15;69.20;;;28.83;;
19406;SDS011;9839;53.364;-1.204;2023-02-15T07:53:41;72.87;;;29.40;;
19406;SDS011;9839;53.364;-1.204;2023-02-15T07:56:09;64.43;;;28.50;;
19406;SDS011;9839;53.364;-1.204;2023-02-15T07:58:36;68.27;;;29.20;;
19406;SDS011;9839;53.364;-1.204;2023-02-15T08:03:46;72.90;;;29.90;;
19406;SDS011;9839;53.364;-1.204;2023-02-15T08:06:11;64.17;;;27.87;;
19406;SDS011;9839;53.364;-1.204;2023-02-15T08:08:38;59.73;;;27.37;;
19406;SDS011;9839;53.364;-1.204;2023-02-15T08:11:06;73.57;;;28.83;;
19406;SDS011;9839;53.364;-1.204;2023-02-15T08:19:13;64.40;;;29.00;;
19406;SDS011;9839;53.364;-1.204;2023-02-15T08:21:48;69.73;;;28.10;;
19406;SDS011;9839;53.364;-1.204;2023-02-15T08:24:35;64.37;;;28.93;;
19406;SDS011;9839;53.364;-1.204;2023-02-15T08:27:02;67.30;;;29.73;;
19406;SDS011;9839;53.364;-1.204;2023-02-15T08:29:29;65.43;;;28.40;;
19406;SDS011;9839;53.364;-1.204;2023-02-15T08:31:57;60.23;;;27.93;;
19406;SDS011;9839;53.364;-1.204;2023-02-15T08:34:31;63.97;;;28.27;;
19406;SDS011;9839;53.364;-1.204;2023-02-15T08:36:59;64.43;;;28.30;;
19406;SDS011;9839;53.364;-1.204;2023-02-15T08:39:26;59.57;;;26.93;;
19406;SDS011;9839;53.364;-1.204;2023-02-15T08:41:51;64.60;;;28.33;;
19406;SDS011;9839;53.364;-1.204;2023-02-15T08:44:18;66.73;;;29.03;;
19406;SDS011;9839;53.364;-1.204;2023-02-15T08:46:45;65.87;;;28.67;;
19406;SDS011;9839;53.364;-1.204;2023-02-15T08:49:13;71.70;;;29.37;;
19406;SDS011;9839;53.364;-1.204;2023-02-15T08:51:49;63.80;;;28.70;;
19406;SDS011;9839;53.364;-1.204;2023-02-15T08:54:16;63.77;;;28.00;;
19406;SDS011;9839;53.364;-1.204;2023-02-15T08:56:43;61.40;;;28.10;;
19406;SDS011;9839;53.364;-1.204;2023-02-15T08:59:20;66.03;;;28.73;;
19406;SDS011;9839;53.364;-1.204;2023-02-15T09:01:47;60.50;;;27.57;;
19406;SDS011;9839;53.364;-1.204;2023-02-15T09:04:15;63.93;;;29.57;;
19406;SDS011;9839;53.364;-1.204;2023-02-15T09:06:42;68.23;;;27.97;;
19406;SDS011;9839;53.364;-1.204;2023-02-15T09:09:09;64.70;;;28.73;;
19406;SDS011;9839;53.364;-1.204;2023-02-15T09:11:36;63.97;;;29.43;;
19406;SDS011;9839;53.364;-1.204;2023-02-15T09:14:07;64.03;;;27.93;;
19406;SDS011;9839;53.364;-1.204;2023-02-15T09:16:35;66.23;;;28.07;;
19406;SDS011;9839;53.364;-1.204;2023-02-15T09:19:02;65.30;;;29.97;;
19406;SDS011;9839;53.364;-1.204;2023-02-15T09:21:32;62.33;;;28.40;;
19406;SDS011;9839;53.364;-1.204;2023-02-15T09:24:01;61.43;;;28.53;;
19406;SDS011;9839;53.364;-1.204;2023-02-15T09:26:30;68.57;;;29.63;;
19406;SDS011;9839;53.364;-1.204;2023-02-15T09:28:58;60.57;;;27.97;;
19406;SDS011;9839;53.364;-1.204;2023-02-15T09:31:27;58.30;;;26.07;;
19406;SDS011;9839;53.364;-1.204;2023-02-15T09:33:54;57.43;;;27.10;;
19406;SDS011;9839;53.364;-1.204;2023-02-15T09:38:56;61.73;;;27.00;;
19406;SDS011;9839;53.364;-1.204;2023-02-15T09:52:33;59.97;;;28.10;;
19406;SDS011;9839;53.364;-1.204;2023-02-15T09:57:46;57.33;;;27.37;;
19406;SDS011;9839;53.364;-1.204;2023-02-15T10:03:09;58.13;;;26.90;;
19406;SDS011;9839;53.364;-1.204;2023-02-15T10:06:02;58.00;;;25.63;;
19406;SDS011;9839;53.364;-1.204;2023-02-15T10:11:40;57.43;;;26.67;;
19406;SDS011;9839;53.364;-1.204;2023-02-15T10:28:18;52.70;;;26.20;;
19406;SDS011;9839;53.364;-1.204;2023-02-15T10:36:30;46.97;;;23.60;;
19406;SDS011;9839;53.364;-1.204;2023-02-15T10:38:43;46.33;;;24.50;;
19406;SDS011;9839;53.364;-1.204;2023-02-15T10:41:34;47.77;;;24.43;;
19406;SDS011;9839;53.364;-1.204;2023-02-15T10:47:00;51.97;;;24.53;;
19406;SDS011;9839;53.364;-1.204;2023-02-15T11:01:38;48.40;;;22.80;;
19406;SDS011;9839;53.364;-1.204;2023-02-15T11:07:57;45.47;;;22.57;;
19406;SDS011;9839;53.364;-1.204;2023-02-15T11:10:11;50.77;;;23.77;;
19406;SDS011;9839;53.364;-1.204;2023-02-15T11:12:39;47.47;;;22.90;;
19406;SDS011;9839;53.364;-1.204;2023-02-15T11:15:15;44.23;;;23.37;;
19406;SDS011;9839;53.364;-1.204;2023-02-15T11:17:52;49.77;;;23.67;;
19406;SDS011;9839;53.364;-1.204;2023-02-15T11:20:33;44.07;;;21.57;;
19406;SDS011;9839;53.364;-1.204;2023-02-15T11:23:06;48.67;;;23.10;;
19406;SDS011;9839;53.364;-1.204;2023-02-15T11:25:41;48.07;;;23.77;;
19406;SDS011;9839;53.364;-1.204;2023-02-15T11:28:39;51.10;;;23.53;;
19406;SDS011;9839;53.364;-1.204;2023-02-15T11:31:12;45.53;;;21.83;;
19406;SDS011;9839;53.364;-1.204;2023-02-15T11:33:44;49.33;;;22.80;;
19406;SDS011;9839;53.364;-1.204;2023-02-15T11:36:33;43.50;;;22.70;;
19406;SDS011;9839;53.364;-1.204;2023-02-15T11:39:09;47.47;;;23.10;;
19406;SDS011;9839;53.364;-1.204;2023-02-15T11:41:39;50.10;;;22.53;;
19406;SDS011;9839;53.364;-1.204;2023-02-15T11:44:16;47.23;;;22.67;;
19406;SDS011;9839;53.364;-1.204;2023-02-15T11:46:45;56.33;;;25.13;;
19406;SDS011;9839;53.364;-1.204;2023-02-15T11:51:55;51.13;;;22.67;;
19406;SDS011;9839;53.364;-1.204;2023-02-15T11:54:23;42.77;;;22.63;;
19406;SDS011;9839;53.364;-1.204;2023-02-15T11:56:58;50.83;;;22.60;;
19406;SDS011;9839;53.364;-1.204;2023-02-15T11:59:31;43.67;;;21.57;;
19406;SDS011;9839;53.364;-1.204;2023-02-15T12:02:00;42.27;;;22.63;;
19406;SDS011;9839;53.364;-1.204;2023-02-15T12:04:36;48.87;;;22.33;;
19406;SDS011;9839;53.364;-1.204;2023-02-15T12:07:23;44.17;;;21.53;;
19406;SDS011;9839;53.364;-1.204;2023-02-15T12:12:45;49.70;;;21.83;;
19406;SDS011;9839;53.364;-1.204;2023-02-15T12:15:11;40.07;;;21.13;;
19406;SDS011;9839;53.364;-1.204;2023-02-15T12:17:39;48.77;;;23.43;;
19406;SDS011;9839;53.364;-1.204;2023-02-15T12:22:38;47.37;;;22.53;;
19406;SDS011;9839;53.364;-1.204;2023-02-15T12:28:00;45.60;;;22.70;;
19406;SDS011;9839;53.364;-1.204;2023-02-15T12:30:36;49.33;;;23.23;;
19406;SDS011;9839;53.364;-1.204;2023-02-15T12:35:40;45.00;;;21.40;;
19406;SDS011;9839;53.364;-1.204;2023-02-15T12:40:36;47.60;;;22.03;;
19406;SDS011;9839;53.364;-1.204;2023-02-15T12:43:02;44.33;;;21.63;;
19406;SDS011;9839;53.364;-1.204;2023-02-15T12:45:34;40.53;;;21.20;;
19406;SDS011;9839;53.364;-1.204;2023-02-15T12:48:08;43.60;;;20.97;;
19406;SDS011;9839;53.364;-1.204;2023-02-15T12:50:39;45.80;;;21.80;;
19406;SDS011;9839;53.364;-1.204;2023-02-15T12:55:56;44.40;;;21.57;;
19406;SDS011;9839;53.364;-1.204;2023-02-15T12:58:30;45.40;;;22.27;;
19406;SDS011;9839;53.364;-1.204;2023-02-15T13:01:04;46.23;;;21.43;;
19406;SDS011;9839;53.364;-1.204;2023-02-15T13:06:25;48.67;;;19.67;;
19406;SDS011;9839;53.364;-1.204;2023-02-15T13:08:52;41.53;;;21.27;;
19406;SDS011;9839;53.364;-1.204;2023-02-15T13:11:28;41.77;;;21.17;;
19406;SDS011;9839;53.364;-1.204;2023-02-15T13:14:00;38.60;;;19.63;;
19406;SDS011;9839;53.364;-1.204;2023-02-15T13:16:34;39.87;;;19.33;;
19406;SDS011;9839;53.364;-1.204;2023-02-15T13:19:06;39.07;;;19.23;;
19406;SDS011;9839;53.364;-1.204;2023-02-15T13:21:44;43.47;;;18.70;;
19406;SDS011;9839;53.364;-1.204;2023-02-15T13:26:43;38.67;;;18.70;;
19406;SDS011;9839;53.364;-1.204;2023-02-15T13:29:15;40.93;;;19.00;;
19406;SDS011;9839;53.364;-1.204;2023-02-15T13:31:47;35.10;;;18.00;;
19406;SDS011;9839;53.364;-1.204;2023-02-15T13:34:20;35.13;;;17.57;;
19406;SDS011;9839;53.364;-1.204;2023-02-15T13:39:39;37.70;;;17.90;;
19406;SDS011;9839;53.364;-1.204;2023-02-15T13:45:13;34.77;;;16.83;;
19406;SDS011;9839;53.364;-1.204;2023-02-15T13:47:52;30.37;;;16.33;;
19406;SDS011;9839;53.364;-1.204;2023-02-15T13:56:04;31.00;;;16.43;;
19406;SDS011;9839;53.364;-1.204;2023-02-15T14:01:39;36.93;;;16.70;;
19406;SDS011;9839;53.364;-1.204;2023-02-15T14:04:14;31.93;;;15.33;;
19406;SDS011;9839;53.364;-1.204;2023-02-15T14:09:30;28.37;;;14.73;;
19406;SDS011;9839;53.364;-1.204;2023-02-15T14:18:01;28.77;;;14.63;;
19406;SDS011;9839;53.364;-1.204;2023-02-15T14:29:23;28.47;;;14.67;;
19406;SDS011;9839;53.364;-1.204;2023-02-15T14:32:04;28.97;;;13.87;;
19406;SDS011;9839;53.364;-1.204;2023-02-15T14:34:45;28.57;;;14.70;;
19406;SDS011;9839;53.364;-1.204;2023-02-15T14:37:19;30.27;;;13.17;;
19406;SDS011;9839;53.364;-1.204;2023-02-15T14:39:58;30.37;;;14.30;;
19406;SDS011;9839;53.364;-1.204;2023-02-15T14:43:04;31.10;;;12.80;;
19406;SDS011;9839;53.364;-1.204;2023-02-15T14:48:15;26.50;;;12.03;;
19406;SDS011;9839;53.364;-1.204;2023-02-15T14:50:47;23.50;;;11.57;;
19406;SDS011;9839;53.364;-1.204;2023-02-15T14:53:20;27.30;;;12.40;;
19406;SDS011;9839;53.364;-1.204;2023-02-15T14:56:12;24.80;;;11.37;;
19406;SDS011;9839;53.364;-1.204;2023-02-15T15:01:24;29.20;;;12.83;;
19406;SDS011;9839;53.364;-1.204;2023-02-15T15:03:57;23.40;;;12.70;;
19406;SDS011;9839;53.364;-1.204;2023-02-15T15:06:27;35.37;;;12.57;;
19406;SDS011;9839;53.364;-1.204;2023-02-15T15:08:57;30.10;;;12.37;;
19406;SDS011;9839;53.364;-1.204;2023-02-15T15:13:55;30.20;;;14.27;;
19406;SDS011;9839;53.364;-1.204;2023-02-15T15:19:00;28.83;;;13.07;;
19406;SDS011;9839;53.364;-1.204;2023-02-15T15:32:51;25.13;;;13.33;;
19406;SDS011;9839;53.364;-1.204;2023-02-15T15:43:32;30.93;;;14.37;;
19406;SDS011;9839;53.364;-1.204;2023-02-15T15:46:30;28.60;;;14.50;;
19406;SDS011;9839;53.364;-1.204;2023-02-15T15:49:23;30.63;;;13.70;;
19406;SDS011;9839;53.364;-1.204;2023-02-15T15:51:53;33.93;;;15.50;;
19406;SDS011;9839;53.364;-1.204;2023-02-15T15:54:28;29.80;;;14.77;;
19406;SDS011;9839;53.364;-1.204;2023-02-15T15:56:57;33.87;;;15.20;;
19406;SDS011;9839;53.364;-1.204;2023-02-15T15:59:31;27.63;;;14.20;;
19406;SDS011;9839;53.364;-1.204;2023-02-15T16:02:17;32.27;;;15.23;;
19406;SDS011;9839;53.364;-1.204;2023-02-15T16:04:44;31.30;;;14.17;;
19406;SDS011;9839;53.364;-1.204;2023-02-15T16:09:39;30.83;;;15.23;;
19406;SDS011;9839;53.364;-1.204;2023-02-15T16:12:05;32.57;;;15.93;;
19406;SDS011;9839;53.364;-1.204;2023-02-15T16:14:40;29.90;;;15.60;;
19406;SDS011;9839;53.364;-1.204;2023-02-15T16:17:13;31.27;;;15.80;;
19406;SDS011;9839;53.364;-1.204;2023-02-15T16:19:44;37.73;;;15.30;;
19406;SDS011;9839;53.364;-1.204;2023-02-15T16:22:12;33.33;;;15.47;;
19406;SDS011;9839;53.364;-1.204;2023-02-15T16:29:45;30.10;;;15.33;;
19406;SDS011;9839;53.364;-1.204;2023-02-15T16:34:59;38.97;;;17.47;;
19406;SDS011;9839;53.364;-1.204;2023-02-15T16:37:33;37.03;;;15.20;;
19406;SDS011;9839;53.364;-1.204;2023-02-15T16:39:59;27.73;;;15.10;;
19406;SDS011;9839;53.364;-1.204;2023-02-15T16:42:25;33.40;;;17.77;;
19406;SDS011;9839;53.364;-1.204;2023-02-15T16:44:54;31.10;;;16.00;;
19406;SDS011;9839;53.364;-1.204;2023-02-15T16:47:31;41.83;;;17.00;;
19406;SDS011;9839;53.364;-1.204;2023-02-15T16:50:02;33.13;;;15.67;;
19406;SDS011;9839;53.364;-1.204;2023-02-15T16:52:29;37.60;;;16.20;;
19406;SDS011;9839;53.364;-1.204;2023-02-15T16:54:56;32.57;;;15.00;;
19406;SDS011;9839;53.364;-1.204;2023-02-15T16:57:43;33.57;;;16.70;;
19406;SDS011;9839;53.364;-1.204;2023-02-15T17:00:17;33.90;;;16.80;;
19406;SDS011;9839;53.364;-1.204;2023-02-15T17:03:04;41.23;;;17.07;;
19406;SDS011;9839;53.364;-1.204;2023-02-15T17:05:48;34.97;;;17.53;;
19406;SDS011;9839;53.364;-1.204;2023-02-15T17:13:39;38.40;;;17.53;;
19406;SDS011;9839;53.364;-1.204;2023-02-15T17:16:31;36.63;;;17.50;;
19406;SDS011;9839;53.364;-1.204;2023-02-15T17:19:03;37.53;;;18.10;;
19406;SDS011;9839;53.364;-1.204;2023-02-15T17:21:51;36.00;;;18.37;;
19406;SDS011;9839;53.364;-1.204;2023-02-15T17:24:25;40.50;;;19.13;;
19406;SDS011;9839;53.364;-1.204;2023-02-15T17:27:20;38.80;;;18.50;;
19406;SDS011;9839;53.364;-1.204;2023-02-15T17:29:55;41.83;;;18.40;;
19406;SDS011;9839;53.364;-1.204;2023-02-15T17:32:26;36.97;;;17.23;;
19406;SDS011;9839;53.364;-1.204;2023-02-15T17:39:52;34.43;;;16.67;;
19406;SDS011;9839;53.364;-1.204;2023-02-15T17:42:18;37.70;;;17.90;;
19406;SDS011;9839;53.364;-1.204;2023-02-15T17:44:44;33.23;;;17.03;;
19406;SDS011;9839;53.364;-1.204;2023-02-15T17:47:12;44.70;;;18.27;;
19406;SDS011;9839;53.364;-1.204;2023-02-15T17:49:44;40.30;;;18.40;;
19406;SDS011;9839;53.364;-1.204;2023-02-15T17:52:11;36.80;;;19.73;;
19406;SDS011;9839;53.364;-1.204;2023-02-15T17:54:41;38.63;;;18.93;;
19406;SDS011;9839;53.364;-1.204;2023-02-15T17:57:26;46.00;;;22.73;;
19406;SDS011;9839;53.364;-1.204;2023-02-15T17:59:53;53.33;;;23.67;;
19406;SDS011;9839;53.364;-1.204;2023-02-15T18:02:37;47.97;;;22.47;;
19406;SDS011;9839;53.364;-1.204;2023-02-15T18:05:22;50.20;;;21.67;;
19406;SDS011;9839;53.364;-1.204;2023-02-15T18:08:16;46.80;;;20.57;;
19406;SDS011;9839;53.364;-1.204;2023-02-15T18:11:01;45.33;;;21.37;;